createdAt,value
2018-01-27T00:00:44.672Z,8.30
2018-01-27T00:03:13.555Z,8.30
2018-01-27T00:05:42.223Z,8.20
2018-01-27T00:08:09.932Z,8.30
2018-01-27T00:10:38.281Z,8.10
2018-01-27T00:13:06.788Z,8.00
2018-01-27T00:15:35.537Z,8.10
2018-01-27T00:18:03.571Z,8.10
2018-01-27T00:20:32.701Z,8.40
2018-01-27T00:23:01.087Z,8.40
2018-01-27T00:25:29.440Z,8.50
2018-01-27T00:27:57.870Z,8.50
2018-01-27T00:30:26.352Z,8.50
2018-01-27T00:32:55.571Z,8.30
2018-01-27T00:35:24.862Z,8.30
2018-01-27T00:37:53.235Z,8.30
2018-01-27T00:40:21.610Z,8.40
2018-01-27T00:42:50.201Z,8.40
2018-01-27T00:45:19.357Z,8.30
2018-01-27T00:47:47.862Z,8.30
2018-01-27T00:50:16.226Z,8.40
2018-01-27T00:52:44.600Z,8.40
2018-01-27T00:55:13.127Z,8.50
2018-01-27T00:57:42.310Z,8.40
2018-01-27T01:00:10.731Z,8.40
2018-01-27T01:02:39.148Z,8.40
2018-01-27T01:05:07.686Z,8.30
2018-01-27T01:07:36.162Z,8.40
2018-01-27T01:10:04.720Z,8.50
2018-01-27T01:12:33.939Z,8.40
2018-01-27T01:15:03.073Z,8.50
2018-01-27T01:17:31.462Z,8.40
2018-01-27T01:19:59.836Z,8.40
2018-01-27T01:22:28.290Z,8.30
2018-01-27T01:24:56.881Z,8.40
2018-01-27T01:27:25.366Z,8.50
2018-01-27T01:29:53.968Z,8.40
2018-01-27T01:32:22.504Z,8.40
2018-01-27T01:34:50.883Z,8.50
2018-01-27T01:37:19.260Z,8.30
2018-01-27T01:39:47.635Z,8.40
2018-01-27T01:42:21.619Z,8.40
2018-01-27T01:44:50.860Z,8.40
2018-01-27T01:47:19.229Z,8.40
2018-01-27T01:49:47.588Z,8.40
2018-01-27T01:52:16.738Z,8.30
2018-01-27T01:54:45.265Z,8.30
2018-01-27T01:57:14.412Z,8.20
2018-01-27T01:59:42.778Z,8.20
2018-01-27T02:02:11.407Z,8.20
2018-01-27T02:04:40.953Z,8.30
2018-01-27T02:07:09.532Z,8.30
2018-01-27T02:09:37.895Z,8.40
2018-01-27T02:12:06.254Z,8.40
2018-01-27T02:14:35.391Z,8.50
2018-01-27T02:17:03.980Z,8.50
2018-01-27T02:19:31.999Z,8.50
2018-01-27T02:22:01.186Z,8.50
2018-01-27T02:24:28.931Z,8.50
2018-01-27T02:26:57.501Z,8.50
2018-01-27T02:29:25.990Z,8.40
2018-01-27T02:31:54.352Z,8.30
2018-01-27T02:34:22.399Z,8.30
2018-01-27T02:36:50.917Z,8.30
2018-01-27T02:39:19.063Z,8.30
2018-01-27T02:41:47.454Z,8.40
2018-01-27T02:44:15.834Z,8.40
2018-01-27T02:46:44.171Z,8.30
2018-01-27T02:49:13.320Z,8.10
2018-01-27T02:51:41.821Z,8.10
2018-01-27T02:54:10.286Z,8.20
2018-01-27T02:56:38.012Z,8.20
2018-01-27T02:59:06.295Z,8.30
2018-01-27T03:01:34.730Z,8.30
2018-01-27T03:04:03.912Z,8.30
2018-01-27T03:06:32.270Z,8.30
2018-01-27T03:09:00.674Z,8.20
2018-01-27T03:11:29.051Z,8.30
2018-01-27T03:13:57.404Z,8.30
2018-01-27T03:16:25.777Z,8.20
2018-01-27T03:18:54.228Z,8.20
2018-01-27T03:21:22.635Z,8.10
2018-01-27T03:23:51.182Z,8.20
2018-01-27T03:26:19.541Z,8.30
2018-01-27T03:28:48.694Z,8.30
2018-01-27T03:31:17.234Z,8.30
2018-01-27T03:33:45.698Z,8.30
2018-01-27T03:36:14.837Z,8.30
2018-01-27T03:38:43.960Z,8.30
2018-01-27T03:41:12.335Z,8.30
2018-01-27T03:43:40.742Z,8.30
2018-01-27T03:46:09.902Z,8.10
2018-01-27T03:48:38.314Z,8.10
2018-01-27T03:51:07.618Z,7.90
2018-01-27T03:53:36.765Z,7.80
2018-01-27T03:56:05.273Z,7.80
2018-01-27T03:58:33.654Z,7.70
2018-01-27T04:01:02.151Z,7.60
2018-01-27T04:03:31.765Z,7.40
2018-01-27T04:06:00.280Z,7.30
2018-01-27T04:08:28.634Z,7.30
2018-01-27T04:10:57.467Z,7.20
2018-01-27T04:13:26.045Z,7.20
2018-01-27T04:15:54.447Z,7.10
2018-01-27T04:18:22.964Z,7.10
2018-01-27T04:20:51.757Z,7.20
2018-01-27T04:23:20.103Z,7.10
2018-01-27T04:25:48.475Z,7.20
2018-01-27T04:28:17.040Z,7.30
2018-01-27T04:30:45.806Z,7.30
2018-01-27T04:33:14.318Z,7.30
2018-01-27T04:35:42.687Z,7.40
2018-01-27T04:38:11.239Z,7.40
2018-01-27T04:40:39.290Z,7.50
2018-01-27T04:43:08.574Z,7.50
2018-01-27T04:45:37.855Z,7.50
2018-01-27T04:48:06.216Z,7.40
2018-01-27T04:50:36.464Z,7.40
2018-01-27T04:53:04.818Z,7.30
2018-01-27T04:55:33.179Z,7.30
2018-01-27T04:58:01.555Z,7.30
2018-01-27T05:00:29.942Z,7.20
2018-01-27T05:02:58.284Z,7.20
2018-01-27T05:05:26.839Z,7.10
2018-01-27T05:07:55.187Z,7.10
2018-01-27T05:10:23.575Z,7.10
2018-01-27T05:12:52.024Z,7.10
2018-01-27T05:15:20.408Z,7.10
2018-01-27T05:17:49.031Z,7.20
2018-01-27T05:20:17.454Z,7.20
2018-01-27T05:22:45.829Z,7.20
2018-01-27T05:25:14.418Z,7.20
2018-01-27T05:27:42.814Z,7.30
2018-01-27T05:30:11.180Z,7.30
2018-01-27T05:32:39.583Z,7.30
2018-01-27T05:35:07.957Z,7.30
2018-01-27T05:37:36.333Z,7.20
2018-01-27T05:40:04.480Z,7.10
2018-01-27T05:42:32.890Z,7.20
2018-01-27T05:45:01.475Z,7.10
2018-01-27T05:47:31.311Z,6.90
2018-01-27T05:49:59.757Z,6.90
2018-01-27T05:52:28.148Z,6.80
2018-01-27T05:54:56.749Z,6.80
2018-01-27T05:57:25.866Z,6.70
2018-01-27T05:59:55.060Z,6.70
2018-01-27T06:02:24.458Z,6.70
2018-01-27T06:04:53.613Z,6.80
2018-01-27T06:07:22.126Z,6.80
2018-01-27T06:09:51.735Z,6.30
2018-01-27T06:12:20.748Z,6.20
2018-01-27T06:14:49.206Z,6.10
2018-01-27T06:17:18.375Z,6.20
2018-01-27T06:19:47.027Z,6.20
2018-01-27T06:22:15.366Z,6.20
2018-01-27T06:24:44.563Z,5.90
2018-01-27T06:27:13.660Z,5.90
2018-01-27T06:29:42.930Z,6.00
2018-01-27T06:32:11.526Z,6.00
2018-01-27T06:34:40.066Z,6.20
2018-01-27T06:37:08.206Z,6.10
2018-01-27T06:39:36.567Z,6.20
2018-01-27T06:42:06.560Z,6.30
2018-01-27T06:44:34.933Z,6.30
2018-01-27T06:47:03.323Z,6.40
2018-01-27T06:49:31.708Z,6.50
2018-01-27T06:51:59.756Z,6.50
2018-01-27T06:54:28.202Z,6.40
2018-01-27T06:56:56.655Z,6.40
2018-01-27T06:59:25.953Z,6.50
2018-01-27T07:01:55.084Z,6.60
2018-01-27T07:04:23.573Z,6.50
2018-01-27T07:06:51.952Z,6.50
2018-01-27T07:09:20.321Z,6.30
2018-01-27T07:11:49.208Z,6.20
2018-01-27T07:14:17.555Z,6.30
2018-01-27T07:16:46.739Z,6.50
2018-01-27T07:19:15.889Z,6.50
2018-01-27T07:21:44.410Z,6.50
2018-01-27T07:24:12.091Z,6.50
2018-01-27T07:26:41.221Z,6.40
2018-01-27T07:29:09.748Z,6.40
2018-01-27T07:31:38.523Z,6.40
2018-01-27T07:34:06.872Z,6.40
2018-01-27T07:36:35.672Z,6.40
2018-01-27T07:39:03.826Z,6.30
2018-01-27T07:41:32.547Z,6.40
2018-01-27T07:44:01.245Z,6.30
2018-01-27T07:46:29.624Z,6.20
2018-01-27T07:48:57.663Z,6.20
2018-01-27T07:51:26.125Z,6.20
2018-01-27T07:53:54.541Z,6.30
2018-01-27T07:56:22.922Z,6.30
2018-01-27T07:58:51.345Z,6.50
2018-01-27T08:01:19.962Z,6.60
2018-01-27T08:03:48.532Z,6.60
2018-01-27T08:06:16.886Z,6.70
2018-01-27T08:08:45.592Z,6.80
2018-01-27T08:11:14.083Z,6.80
2018-01-27T08:13:43.549Z,6.80
2018-01-27T08:16:12.704Z,7.00
2018-01-27T08:18:41.070Z,7.00
2018-01-27T08:21:09.437Z,7.00
2018-01-27T08:23:37.820Z,7.00
2018-01-27T08:26:06.165Z,7.00
2018-01-27T08:28:34.738Z,6.90
2018-01-27T08:31:03.864Z,6.90
2018-01-27T08:33:32.276Z,6.90
2018-01-27T08:36:00.644Z,6.90
2018-01-27T08:38:29.079Z,6.90
2018-01-27T08:40:57.539Z,6.90
2018-01-27T08:43:26.672Z,7.00
2018-01-27T08:45:55.194Z,7.00
2018-01-27T08:48:24.175Z,7.00
2018-01-27T08:50:52.544Z,7.20
2018-01-27T08:53:20.893Z,7.20
2018-01-27T08:55:48.907Z,7.30
2018-01-27T08:58:17.270Z,7.30
2018-01-27T09:00:45.642Z,7.50
2018-01-27T09:03:14.060Z,7.50
2018-01-27T09:05:42.581Z,7.60
2018-01-27T09:08:10.934Z,7.60
2018-01-27T09:10:40.058Z,7.60
2018-01-27T09:13:08.457Z,7.60
2018-01-27T09:15:36.822Z,7.70
2018-01-27T09:18:05.222Z,7.70
2018-01-27T09:20:34.067Z,7.70
2018-01-27T09:23:02.432Z,7.70
2018-01-27T09:25:30.849Z,7.70
2018-01-27T09:27:59.402Z,7.60
2018-01-27T09:30:27.944Z,7.40
2018-01-27T09:32:56.307Z,7.40
2018-01-27T09:35:24.650Z,7.60
2018-01-27T09:37:53.030Z,7.70
2018-01-27T09:40:22.022Z,7.70
2018-01-27T09:42:50.542Z,7.70
2018-01-27T09:45:19.602Z,7.80
2018-01-27T09:47:48.004Z,7.90
2018-01-27T09:50:16.704Z,7.90
2018-01-27T09:52:45.068Z,7.80
2018-01-27T09:55:13.459Z,7.70
2018-01-27T09:57:41.830Z,7.70
2018-01-27T10:00:10.253Z,7.60
2018-01-27T10:02:39.381Z,7.60
2018-01-27T10:05:08.039Z,7.60
2018-01-27T10:07:36.390Z,7.60
2018-01-27T10:10:04.760Z,7.60
2018-01-27T10:12:33.189Z,7.70
2018-01-27T10:15:01.561Z,7.70
2018-01-27T10:17:29.928Z,7.70
2018-01-27T10:19:57.973Z,7.70
2018-01-27T10:22:26.517Z,7.60
2018-01-27T10:24:54.895Z,7.70
2018-01-27T10:27:23.276Z,7.60
2018-01-27T10:29:51.694Z,7.60
2018-01-27T10:32:20.940Z,7.70
2018-01-27T10:34:49.507Z,7.70
2018-01-27T10:37:17.892Z,7.80
2018-01-27T10:39:46.146Z,7.90
2018-01-27T10:42:15.171Z,8.20
2018-01-27T10:44:43.378Z,8.10
2018-01-27T10:47:11.745Z,8.20
2018-01-27T10:49:40.201Z,8.30
2018-01-27T10:52:08.654Z,8.30
2018-01-27T10:54:37.936Z,8.40
2018-01-27T10:57:07.269Z,8.40
2018-01-27T10:59:35.799Z,8.40
2018-01-27T11:02:04.345Z,8.30
2018-01-27T11:04:32.740Z,8.40
2018-01-27T11:07:01.432Z,8.50
2018-01-27T11:09:29.955Z,8.60
2018-01-27T11:11:59.766Z,8.80
2018-01-27T11:14:28.353Z,8.80
2018-01-27T11:16:56.549Z,8.80
2018-01-27T11:19:25.238Z,8.80
2018-01-27T11:21:53.717Z,8.80
2018-01-27T11:24:22.228Z,8.70
2018-01-27T11:26:50.599Z,8.90
2018-01-27T11:29:18.992Z,8.80
2018-01-27T11:31:47.356Z,9.00
2018-01-27T11:34:15.850Z,9.10
2018-01-27T11:36:44.670Z,9.10
2018-01-27T11:39:13.092Z,9.30
2018-01-27T11:41:41.642Z,9.30
2018-01-27T11:44:10.045Z,9.20
2018-01-27T11:46:38.432Z,9.00
2018-01-27T11:49:06.981Z,9.00
2018-01-27T11:51:35.652Z,9.00
2018-01-27T11:54:04.806Z,9.10
2018-01-27T11:56:32.984Z,9.10
2018-01-27T11:59:01.365Z,9.00
2018-01-27T12:01:30.313Z,8.90
2018-01-27T12:03:58.721Z,8.80
2018-01-27T12:06:27.226Z,8.70
2018-01-27T12:08:56.403Z,8.50
2018-01-27T12:11:24.812Z,8.50
2018-01-27T12:13:53.375Z,8.50
2018-01-27T12:16:21.622Z,8.50
2018-01-27T12:18:50.297Z,8.60
2018-01-27T12:21:18.684Z,8.60
2018-01-27T12:23:47.072Z,8.70
2018-01-27T12:26:15.433Z,8.70
2018-01-27T12:28:43.863Z,8.70
2018-01-27T12:31:12.296Z,8.80
2018-01-27T12:33:40.874Z,8.90
2018-01-27T12:36:09.259Z,8.80
2018-01-27T12:38:37.785Z,8.90
2018-01-27T12:41:06.951Z,8.90
2018-01-27T12:43:35.357Z,8.90
2018-01-27T12:46:03.820Z,8.90
2018-01-27T12:48:32.275Z,8.90
2018-01-27T12:51:00.924Z,8.90
2018-01-27T12:53:30.086Z,8.90
2018-01-27T12:55:58.569Z,8.90
2018-01-27T12:58:26.949Z,8.90
2018-01-27T13:00:55.618Z,8.80
2018-01-27T13:03:23.990Z,8.80
2018-01-27T13:05:52.431Z,8.90
2018-01-27T13:08:21.003Z,8.80
2018-01-27T13:10:49.567Z,8.80
2018-01-27T13:13:18.733Z,8.80
2018-01-27T13:15:47.084Z,8.80
2018-01-27T13:18:15.460Z,8.70
2018-01-27T13:20:43.815Z,8.70
2018-01-27T13:23:13.499Z,8.80
2018-01-27T13:25:41.944Z,8.70
2018-01-27T13:28:10.360Z,8.70
2018-01-27T13:30:38.856Z,8.70
2018-01-27T13:33:07.988Z,8.70
2018-01-27T13:35:36.342Z,8.70
2018-01-27T13:38:04.811Z,8.70
2018-01-27T13:40:34.002Z,8.60
2018-01-27T13:43:04.770Z,8.70
2018-01-27T13:45:34.077Z,8.70
2018-01-27T13:48:02.520Z,8.70
2018-01-27T13:50:31.954Z,8.70
2018-01-27T13:53:00.341Z,8.70
2018-01-27T13:55:28.734Z,8.80
2018-01-27T13:57:57.164Z,8.70
2018-01-27T14:00:26.328Z,8.70
2018-01-27T14:02:54.768Z,8.70
2018-01-27T14:05:23.130Z,8.70
2018-01-27T14:07:50.836Z,8.70
2018-01-27T14:10:19.286Z,8.80
2018-01-27T14:12:47.646Z,8.90
2018-01-27T14:15:16.301Z,9.00
2018-01-27T14:17:44.109Z,9.00
2018-01-27T14:20:12.655Z,9.10
2018-01-27T14:22:40.746Z,9.00
2018-01-27T14:25:09.163Z,9.00
2018-01-27T14:27:37.692Z,9.10
2018-01-27T14:30:06.940Z,9.10
2018-01-27T14:32:35.367Z,9.10
2018-01-27T14:35:04.158Z,9.00
2018-01-27T14:37:33.365Z,8.90
2018-01-27T14:40:02.487Z,8.90
2018-01-27T14:42:30.844Z,9.00
2018-01-27T14:44:59.253Z,9.00
2018-01-27T14:47:27.891Z,9.00
2018-01-27T14:49:57.262Z,9.00
2018-01-27T14:52:25.802Z,9.00
2018-01-27T14:54:54.350Z,9.00
2018-01-27T14:57:23.471Z,9.00
2018-01-27T14:59:51.818Z,9.00
2018-01-27T15:02:20.957Z,9.10
2018-01-27T15:04:49.399Z,9.10
2018-01-27T15:07:18.588Z,9.00
2018-01-27T15:09:47.984Z,9.10
2018-01-27T15:12:16.343Z,9.10
2018-01-27T15:14:44.697Z,9.10
2018-01-27T15:17:13.761Z,9.10
2018-01-27T15:19:42.910Z,9.20
2018-01-27T15:22:11.535Z,9.20
2018-01-27T15:24:40.652Z,9.20
2018-01-27T15:27:09.261Z,9.20
2018-01-27T15:29:37.625Z,9.20
2018-01-27T15:32:05.996Z,9.10
2018-01-27T15:34:34.025Z,9.10
2018-01-27T15:37:03.925Z,9.00
2018-01-27T15:39:32.460Z,9.00
2018-01-27T15:42:01.086Z,9.00
2018-01-27T15:44:29.455Z,9.00
2018-01-27T15:46:58.826Z,8.90
2018-01-27T15:49:27.389Z,8.90
2018-01-27T15:51:56.030Z,8.90
2018-01-27T15:54:24.395Z,8.80
2018-01-27T15:56:52.757Z,8.90
2018-01-27T15:59:21.176Z,8.80
2018-01-27T16:01:49.584Z,8.70
2018-01-27T16:04:18.858Z,8.60
2018-01-27T16:06:47.235Z,8.60
2018-01-27T16:09:15.600Z,8.60
2018-01-27T16:11:44.345Z,8.60
2018-01-27T16:14:12.939Z,8.50
2018-01-27T16:16:41.926Z,8.50
2018-01-27T16:19:10.290Z,8.40
2018-01-27T16:21:38.326Z,8.40
2018-01-27T16:24:07.542Z,8.30
2018-01-27T16:26:36.911Z,8.30
2018-01-27T16:29:05.380Z,8.30
2018-01-27T16:31:33.552Z,8.20
2018-01-27T16:34:02.390Z,8.20
2018-01-27T16:36:30.885Z,8.20
2018-01-27T16:38:58.579Z,8.20
2018-01-27T16:41:26.987Z,8.10
2018-01-27T16:43:55.928Z,8.20
2018-01-27T16:46:24.298Z,8.10
2018-01-27T16:48:52.480Z,8.20
2018-01-27T16:51:20.884Z,8.20
2018-01-27T16:53:49.725Z,8.20
2018-01-27T16:56:18.071Z,8.20
2018-01-27T16:58:47.950Z,8.20
2018-01-27T17:01:16.311Z,8.20
2018-01-27T17:03:44.677Z,8.20
2018-01-27T17:06:13.058Z,8.20
2018-01-27T17:08:41.413Z,8.20
2018-01-27T17:11:10.539Z,8.20
2018-01-27T17:13:38.902Z,8.20
2018-01-27T17:16:07.533Z,8.20
2018-01-27T17:18:36.053Z,8.20
2018-01-27T17:21:05.255Z,8.20
2018-01-27T17:23:33.790Z,8.20
2018-01-27T17:26:02.146Z,8.10
2018-01-27T17:28:30.174Z,8.10
2018-01-27T17:30:59.318Z,8.10
2018-01-27T17:33:27.350Z,8.10
2018-01-27T17:35:56.591Z,8.10
2018-01-27T17:38:25.068Z,8.10
2018-01-27T17:40:53.459Z,8.10
2018-01-27T17:43:22.174Z,8.10
2018-01-27T17:45:51.339Z,8.00
2018-01-27T17:48:19.689Z,8.00
2018-01-27T17:50:48.512Z,8.00
2018-01-27T17:53:16.899Z,8.00
2018-01-27T17:55:45.271Z,8.10
2018-01-27T17:58:13.460Z,8.00
2018-01-27T18:00:41.837Z,8.00
2018-01-27T18:03:10.954Z,8.00
2018-01-27T18:05:39.310Z,8.00
2018-01-27T18:08:07.702Z,8.00
2018-01-27T18:10:36.818Z,8.00
2018-01-27T18:13:05.206Z,8.00
2018-01-27T18:15:33.541Z,8.00
2018-01-27T18:18:02.102Z,7.90
2018-01-27T18:20:30.462Z,8.00
2018-01-27T18:22:58.842Z,8.00
2018-01-27T18:25:27.020Z,8.00
2018-01-27T18:27:55.394Z,8.00
2018-01-27T18:30:23.904Z,8.00
2018-01-27T18:32:52.296Z,8.00
2018-01-27T18:35:22.273Z,8.00
2018-01-27T18:37:50.673Z,8.00
2018-01-27T18:40:19.053Z,7.90
2018-01-27T18:42:52.470Z,8.00
2018-01-27T18:45:21.737Z,8.00
2018-01-27T18:47:50.142Z,8.00
2018-01-27T18:50:19.287Z,8.00
2018-01-27T18:52:47.656Z,8.00
2018-01-27T18:55:16.065Z,8.00
2018-01-27T18:57:44.416Z,8.00
2018-01-27T19:00:13.042Z,8.00
2018-01-27T19:02:42.114Z,8.10
2018-01-27T19:05:10.543Z,8.00
2018-01-27T19:07:38.898Z,8.00
2018-01-27T19:10:06.944Z,8.10
2018-01-27T19:12:35.391Z,8.00
2018-01-27T19:15:03.801Z,8.00
2018-01-27T19:17:32.287Z,8.00
2018-01-27T19:20:00.668Z,8.00
2018-01-27T19:22:29.009Z,8.00
2018-01-27T19:24:57.368Z,8.00
2018-01-27T19:27:25.759Z,8.00
2018-01-27T19:29:53.485Z,8.00
2018-01-27T19:32:21.864Z,7.90
2018-01-27T19:34:50.443Z,7.90
2018-01-27T19:37:18.811Z,7.90
2018-01-27T19:39:47.159Z,7.90
2018-01-27T19:42:15.176Z,7.90
2018-01-27T19:44:44.311Z,7.90
2018-01-27T19:47:12.678Z,7.90
2018-01-27T19:49:41.023Z,7.90
2018-01-27T19:52:10.245Z,7.90
2018-01-27T19:54:38.851Z,7.90
2018-01-27T19:57:07.250Z,7.90
2018-01-27T19:59:35.640Z,7.90
2018-01-27T20:02:03.770Z,7.90
2018-01-27T20:04:32.729Z,7.90
2018-01-27T20:07:01.847Z,7.90
2018-01-27T20:09:30.389Z,7.90
2018-01-27T20:11:58.742Z,7.90
2018-01-27T20:14:27.096Z,7.90
2018-01-27T20:16:55.434Z,7.90
2018-01-27T20:19:24.565Z,7.80
2018-01-27T20:21:52.958Z,7.80
2018-01-27T20:24:21.322Z,7.80
2018-01-27T20:26:49.666Z,7.80
2018-01-27T20:29:19.011Z,7.90
2018-01-27T20:31:47.413Z,7.80
2018-01-27T20:34:15.812Z,7.80
2018-01-27T20:36:44.941Z,7.70
2018-01-27T20:39:13.434Z,7.80
2018-01-27T20:41:40.942Z,7.80
2018-01-27T20:44:08.982Z,7.80
2018-01-27T20:46:37.496Z,7.80
2018-01-27T20:49:07.029Z,7.80
2018-01-27T20:51:36.146Z,7.80
2018-01-27T20:54:04.495Z,7.80
2018-01-27T20:56:34.091Z,7.80
2018-01-27T20:59:03.044Z,7.80
2018-01-27T21:01:31.433Z,7.80
2018-01-27T21:03:59.937Z,7.80
2018-01-27T21:06:28.143Z,7.80
2018-01-27T21:08:56.440Z,7.80
2018-01-27T21:11:24.826Z,7.80
2018-01-27T21:13:53.211Z,7.80
2018-01-27T21:16:21.385Z,7.70
2018-01-27T21:18:49.958Z,7.70
2018-01-27T21:21:18.347Z,7.70
2018-01-27T21:23:46.722Z,7.70
2018-01-27T21:26:14.930Z,7.60
2018-01-27T21:28:44.047Z,7.60
2018-01-27T21:31:12.430Z,7.60
2018-01-27T21:33:40.786Z,7.60
2018-01-27T21:36:09.926Z,7.50
2018-01-27T21:38:38.301Z,7.60
2018-01-27T21:41:06.696Z,7.50
2018-01-27T21:43:35.250Z,7.50
2018-01-27T21:46:03.622Z,7.60
2018-01-27T21:48:32.051Z,7.50
2018-01-27T21:51:00.408Z,7.50
2018-01-27T21:53:28.784Z,7.60
2018-01-27T21:55:57.195Z,7.50
2018-01-27T21:58:25.543Z,7.60
2018-01-27T22:00:54.005Z,7.50
2018-01-27T22:03:32.226Z,7.60
2018-01-27T22:06:00.623Z,7.60
2018-01-27T22:08:29.080Z,7.60
2018-01-27T22:10:57.580Z,7.70
2018-01-27T22:13:25.952Z,7.60
2018-01-27T22:15:54.329Z,7.60
2018-01-27T22:18:23.000Z,7.60
2018-01-27T22:20:51.344Z,7.70
2018-01-27T22:23:20.568Z,7.70
2018-01-27T22:25:48.940Z,7.70
2018-01-27T22:28:17.482Z,7.70
2018-01-27T22:30:45.861Z,7.70
2018-01-27T22:33:14.205Z,7.70
2018-01-27T22:35:42.564Z,7.60
2018-01-27T22:38:10.985Z,7.60
2018-01-27T22:40:40.107Z,7.60
2018-01-27T22:43:09.328Z,7.70
2018-01-27T22:45:37.746Z,7.70
2018-01-27T22:48:05.915Z,7.70
2018-01-27T22:50:33.934Z,7.70
2018-01-27T22:53:01.820Z,7.70
2018-01-27T22:55:30.197Z,7.70
2018-01-27T22:57:58.548Z,7.60
2018-01-27T23:00:27.691Z,7.60
2018-01-27T23:02:56.145Z,7.60
2018-01-27T23:05:24.542Z,7.50
2018-01-27T23:07:52.898Z,7.50
2018-01-27T23:10:20.914Z,7.50
2018-01-27T23:12:48.933Z,7.50
2018-01-27T23:15:17.280Z,7.50
2018-01-27T23:17:45.648Z,7.60
2018-01-27T23:20:13.333Z,7.60
2018-01-27T23:22:41.753Z,7.60
2018-01-27T23:25:10.178Z,7.50
2018-01-27T23:27:39.317Z,7.50
2018-01-27T23:30:07.656Z,7.50
2018-01-27T23:32:36.792Z,7.60
2018-01-27T23:35:05.163Z,7.60
2018-01-27T23:37:33.548Z,7.60
2018-01-27T23:40:01.911Z,7.50
2018-01-27T23:42:31.046Z,7.60
2018-01-27T23:44:59.407Z,7.60
2018-01-27T23:47:27.755Z,7.60
2018-01-27T23:49:56.118Z,7.60
2018-01-27T23:52:25.226Z,7.50
2018-01-27T23:54:53.578Z,7.50
2018-01-27T23:57:22.110Z,7.40
2018-01-27T23:59:50.458Z,7.30
